sensor_id;sensor_type;location;lat;lon;timestamp;P1;durP1;ratioP1;P2;durP2;ratioP2
70148;SDS011;57514;52.164;5.282;2023-12-14T00:01:13;12.65;;;5.00;;
70148;SDS011;57514;52.164;5.282;2023-12-14T00:03:41;10.18;;;4.55;;
70148;SDS011;57514;52.164;5.282;2023-12-14T00:06:10;10.40;;;4.53;;
70148;SDS011;57514;52.164;5.282;2023-12-14T00:08:38;11.23;;;4.70;;
70148;SDS011;57514;52.164;5.282;2023-12-14T00:11:09;11.50;;;4.78;;
70148;SDS011;57514;52.164;5.282;2023-12-14T00:13:37;11.75;;;4.70;;
70148;SDS011;57514;52.164;5.282;2023-12-14T00:16:05;10.70;;;4.70;;
70148;SDS011;57514;52.164;5.282;2023-12-14T00:18:33;11.80;;;5.10;;
70148;SDS011;57514;52.164;5.282;2023-12-14T00:21:00;11.77;;;4.45;;
70148;SDS011;57514;52.164;5.282;2023-12-14T00:23:27;10.13;;;4.63;;
70148;SDS011;57514;52.164;5.282;2023-12-14T00:25:55;10.90;;;4.70;;
70148;SDS011;57514;52.164;5.282;2023-12-14T00:28:22;11.15;;;4.55;;
70148;SDS011;57514;52.164;5.282;2023-12-14T00:30:54;11.27;;;4.65;;
70148;SDS011;57514;52.164;5.282;2023-12-14T00:33:21;12.50;;;4.70;;
70148;SDS011;57514;52.164;5.282;2023-12-14T00:35:49;11.60;;;4.43;;
70148;SDS011;57514;52.164;5.282;2023-12-14T00:38:17;10.02;;;4.25;;
70148;SDS011;57514;52.164;5.282;2023-12-14T00:40:44;10.80;;;4.72;;
70148;SDS011;57514;52.164;5.282;2023-12-14T00:43:11;9.70;;;4.38;;
70148;SDS011;57514;52.164;5.282;2023-12-14T00:45:38;10.98;;;4.13;;
70148;SDS011;57514;52.164;5.282;2023-12-14T00:48:07;11.40;;;4.85;;
70148;SDS011;57514;52.164;5.282;2023-12-14T00:50:35;11.95;;;4.30;;
70148;SDS011;57514;52.164;5.282;2023-12-14T00:53:02;12.65;;;4.85;;
70148;SDS011;57514;52.164;5.282;2023-12-14T00:55:29;11.13;;;4.95;;
70148;SDS011;57514;52.164;5.282;2023-12-14T00:57:57;10.15;;;4.47;;
70148;SDS011;57514;52.164;5.282;2023-12-14T01:00:24;11.40;;;4.88;;
70148;SDS011;57514;52.164;5.282;2023-12-14T01:02:51;10.85;;;4.72;;
70148;SDS011;57514;52.164;5.282;2023-12-14T01:05:19;10.70;;;4.68;;
70148;SDS011;57514;52.164;5.282;2023-12-14T01:07:46;11.02;;;4.32;;
70148;SDS011;57514;52.164;5.282;2023-12-14T01:10:13;12.25;;;5.10;;
70148;SDS011;57514;52.164;5.282;2023-12-14T01:12:41;10.82;;;4.90;;
70148;SDS011;57514;52.164;5.282;2023-12-14T01:15:08;10.57;;;4.47;;
70148;SDS011;57514;52.164;5.282;2023-12-14T01:17:36;10.27;;;4.28;;
70148;SDS011;57514;52.164;5.282;2023-12-14T01:20:05;12.00;;;4.88;;
70148;SDS011;57514;52.164;5.282;2023-12-14T01:22:33;11.82;;;5.03;;
70148;SDS011;57514;52.164;5.282;2023-12-14T01:25:01;12.57;;;5.00;;
70148;SDS011;57514;52.164;5.282;2023-12-14T01:27:29;10.23;;;4.22;;
70148;SDS011;57514;52.164;5.282;2023-12-14T01:29:56;10.15;;;4.05;;
70148;SDS011;57514;52.164;5.282;2023-12-14T01:32:23;11.25;;;4.85;;
70148;SDS011;57514;52.164;5.282;2023-12-14T01:34:51;10.80;;;5.07;;
70148;SDS011;57514;52.164;5.282;2023-12-14T01:37:18;12.30;;;4.93;;
70148;SDS011;57514;52.164;5.282;2023-12-14T01:39:46;12.25;;;5.28;;
70148;SDS011;57514;52.164;5.282;2023-12-14T01:42:13;11.07;;;4.75;;
70148;SDS011;57514;52.164;5.282;2023-12-14T01:44:40;11.80;;;5.28;;
70148;SDS011;57514;52.164;5.282;2023-12-14T01:47:07;10.55;;;4.47;;
70148;SDS011;57514;52.164;5.282;2023-12-14T01:49:35;11.73;;;4.75;;
70148;SDS011;57514;52.164;5.282;2023-12-14T01:52:02;12.38;;;5.00;;
70148;SDS011;57514;52.164;5.282;2023-12-14T01:54:29;11.48;;;4.70;;
70148;SDS011;57514;52.164;5.282;2023-12-14T01:56:57;11.68;;;4.97;;
70148;SDS011;57514;52.164;5.282;2023-12-14T01:59:24;10.95;;;4.85;;
70148;SDS011;57514;52.164;5.282;2023-12-14T02:01:53;9.88;;;4.43;;
70148;SDS011;57514;52.164;5.282;2023-12-14T02:04:23;11.45;;;4.82;;
70148;SDS011;57514;52.164;5.282;2023-12-14T02:06:52;11.55;;;5.03;;
70148;SDS011;57514;52.164;5.282;2023-12-14T02:09:19;10.95;;;5.05;;
70148;SDS011;57514;52.164;5.282;2023-12-14T02:11:46;12.82;;;5.50;;
70148;SDS011;57514;52.164;5.282;2023-12-14T02:14:14;11.38;;;4.82;;
70148;SDS011;57514;52.164;5.282;2023-12-14T02:16:41;10.45;;;4.50;;
70148;SDS011;57514;52.164;5.282;2023-12-14T02:19:08;11.15;;;4.82;;
70148;SDS011;57514;52.164;5.282;2023-12-14T02:21:36;9.80;;;4.22;;
70148;SDS011;57514;52.164;5.282;2023-12-14T02:24:03;12.30;;;5.18;;
70148;SDS011;57514;52.164;5.282;2023-12-14T02:26:30;11.77;;;4.88;;
70148;SDS011;57514;52.164;5.282;2023-12-14T02:28:58;10.48;;;4.57;;
70148;SDS011;57514;52.164;5.282;2023-12-14T02:31:25;11.48;;;5.00;;
70148;SDS011;57514;52.164;5.282;2023-12-14T02:33:52;10.18;;;4.55;;
70148;SDS011;57514;52.164;5.282;2023-12-14T02:36:20;11.23;;;5.03;;
70148;SDS011;57514;52.164;5.282;2023-12-14T02:38:47;11.68;;;4.97;;
70148;SDS011;57514;52.164;5.282;2023-12-14T02:41:15;11.32;;;5.32;;
70148;SDS011;57514;52.164;5.282;2023-12-14T02:43:42;11.32;;;5.30;;
70148;SDS011;57514;52.164;5.282;2023-12-14T02:46:09;11.98;;;5.07;;
70148;SDS011;57514;52.164;5.282;2023-12-14T02:48:39;11.35;;;4.97;;
70148;SDS011;57514;52.164;5.282;2023-12-14T02:53:35;12.10;;;5.30;;
70148;SDS011;57514;52.164;5.282;2023-12-14T02:56:03;10.45;;;4.70;;
70148;SDS011;57514;52.164;5.282;2023-12-14T02:58:30;13.10;;;5.22;;
70148;SDS011;57514;52.164;5.282;2023-12-14T03:00:57;12.77;;;5.38;;
70148;SDS011;57514;52.164;5.282;2023-12-14T03:03:25;10.35;;;4.50;;
70148;SDS011;57514;52.164;5.282;2023-12-14T03:05:54;12.73;;;5.40;;
70148;SDS011;57514;52.164;5.282;2023-12-14T03:08:21;11.88;;;5.28;;
70148;SDS011;57514;52.164;5.282;2023-12-14T03:10:48;13.48;;;5.30;;
70148;SDS011;57514;52.164;5.282;2023-12-14T03:13:15;14.10;;;5.25;;
70148;SDS011;57514;52.164;5.282;2023-12-14T03:15:43;14.02;;;5.65;;
70148;SDS011;57514;52.164;5.282;2023-12-14T03:18:11;14.68;;;5.85;;
70148;SDS011;57514;52.164;5.282;2023-12-14T03:20:39;13.55;;;5.85;;
70148;SDS011;57514;52.164;5.282;2023-12-14T03:23:06;13.40;;;5.68;;
70148;SDS011;57514;52.164;5.282;2023-12-14T03:25:34;12.45;;;5.53;;
70148;SDS011;57514;52.164;5.282;2023-12-14T03:28:01;12.32;;;5.90;;
70148;SDS011;57514;52.164;5.282;2023-12-14T03:30:28;12.88;;;5.43;;
70148;SDS011;57514;52.164;5.282;2023-12-14T03:32:55;12.52;;;5.32;;
70148;SDS011;57514;52.164;5.282;2023-12-14T03:35:23;10.95;;;4.25;;
70148;SDS011;57514;52.164;5.282;2023-12-14T03:37:50;12.52;;;5.25;;
70148;SDS011;57514;52.164;5.282;2023-12-14T03:40:17;11.93;;;4.80;;
70148;SDS011;57514;52.164;5.282;2023-12-14T03:42:45;11.90;;;5.15;;
70148;SDS011;57514;52.164;5.282;2023-12-14T03:45:12;11.80;;;4.55;;
70148;SDS011;57514;52.164;5.282;2023-12-14T03:47:39;13.63;;;4.93;;
70148;SDS011;57514;52.164;5.282;2023-12-14T03:50:07;11.45;;;4.30;;
70148;SDS011;57514;52.164;5.282;2023-12-14T03:52:35;11.93;;;4.75;;
70148;SDS011;57514;52.164;5.282;2023-12-14T03:55:03;13.38;;;4.95;;
70148;SDS011;57514;52.164;5.282;2023-12-14T03:57:30;11.30;;;4.75;;
70148;SDS011;57514;52.164;5.282;2023-12-14T03:59:58;11.05;;;4.10;;
70148;SDS011;57514;52.164;5.282;2023-12-14T04:02:25;10.18;;;4.32;;
70148;SDS011;57514;52.164;5.282;2023-12-14T04:04:52;11.55;;;4.57;;
70148;SDS011;57514;52.164;5.282;2023-12-14T04:07:19;11.05;;;4.10;;
70148;SDS011;57514;52.164;5.282;2023-12-14T04:09:47;10.95;;;3.92;;
70148;SDS011;57514;52.164;5.282;2023-12-14T04:12:15;11.20;;;4.05;;
70148;SDS011;57514;52.164;5.282;2023-12-14T04:14:42;12.00;;;4.45;;
70148;SDS011;57514;52.164;5.282;2023-12-14T04:17:09;11.68;;;4.18;;
70148;SDS011;57514;52.164;5.282;2023-12-14T04:19:37;11.45;;;3.97;;
70148;SDS011;57514;52.164;5.282;2023-12-14T04:22:05;10.35;;;3.50;;
70148;SDS011;57514;52.164;5.282;2023-12-14T04:24:33;10.77;;;3.70;;
70148;SDS011;57514;52.164;5.282;2023-12-14T04:27:00;10.25;;;3.85;;
70148;SDS011;57514;52.164;5.282;2023-12-14T04:29:28;11.48;;;3.95;;
70148;SDS011;57514;52.164;5.282;2023-12-14T04:31:55;10.82;;;4.10;;
70148;SDS011;57514;52.164;5.282;2023-12-14T04:34:22;12.02;;;4.20;;
70148;SDS011;57514;52.164;5.282;2023-12-14T04:36:49;10.05;;;3.95;;
70148;SDS011;57514;52.164;5.282;2023-12-14T04:39:17;10.40;;;3.88;;
70148;SDS011;57514;52.164;5.282;2023-12-14T04:41:44;11.70;;;4.30;;
70148;SDS011;57514;52.164;5.282;2023-12-14T04:44:12;10.05;;;3.55;;
70148;SDS011;57514;52.164;5.282;2023-12-14T04:46:39;9.57;;;3.78;;
70148;SDS011;57514;52.164;5.282;2023-12-14T04:49:06;9.82;;;3.72;;
70148;SDS011;57514;52.164;5.282;2023-12-14T04:51:34;10.85;;;4.07;;
70148;SDS011;57514;52.164;5.282;2023-12-14T04:54:01;11.90;;;3.88;;
70148;SDS011;57514;52.164;5.282;2023-12-14T04:56:28;10.32;;;3.97;;
70148;SDS011;57514;52.164;5.282;2023-12-14T04:58:56;10.23;;;3.85;;
70148;SDS011;57514;52.164;5.282;2023-12-14T05:01:23;9.82;;;3.72;;
70148;SDS011;57514;52.164;5.282;2023-12-14T05:03:53;9.85;;;3.70;;
70148;SDS011;57514;52.164;5.282;2023-12-14T05:06:20;10.32;;;3.75;;
70148;SDS011;57514;52.164;5.282;2023-12-14T05:08:48;8.65;;;3.10;;
70148;SDS011;57514;52.164;5.282;2023-12-14T05:11:15;12.05;;;3.78;;
70148;SDS011;57514;52.164;5.282;2023-12-14T05:13:43;8.88;;;3.80;;
70148;SDS011;57514;52.164;5.282;2023-12-14T05:16:13;10.50;;;3.85;;
70148;SDS011;57514;52.164;5.282;2023-12-14T05:18:41;10.02;;;3.70;;
70148;SDS011;57514;52.164;5.282;2023-12-14T05:21:08;9.10;;;3.25;;
70148;SDS011;57514;52.164;5.282;2023-12-14T05:23:35;8.75;;;3.03;;
70148;SDS011;57514;52.164;5.282;2023-12-14T05:26:02;9.90;;;3.90;;
70148;SDS011;57514;52.164;5.282;2023-12-14T05:28:30;9.88;;;3.53;;
70148;SDS011;57514;52.164;5.282;2023-12-14T05:30:57;7.88;;;2.92;;
70148;SDS011;57514;52.164;5.282;2023-12-14T05:33:24;9.65;;;3.50;;
70148;SDS011;57514;52.164;5.282;2023-12-14T05:35:52;8.88;;;3.33;;
70148;SDS011;57514;52.164;5.282;2023-12-14T05:38:20;8.45;;;3.47;;
70148;SDS011;57514;52.164;5.282;2023-12-14T05:40:47;9.73;;;3.38;;
70148;SDS011;57514;52.164;5.282;2023-12-14T05:43:14;9.25;;;3.30;;
70148;SDS011;57514;52.164;5.282;2023-12-14T05:45:42;9.48;;;3.45;;
70148;SDS011;57514;52.164;5.282;2023-12-14T05:48:09;8.07;;;3.30;;
70148;SDS011;57514;52.164;5.282;2023-12-14T05:50:36;9.02;;;3.13;;
70148;SDS011;57514;52.164;5.282;2023-12-14T05:53:04;8.63;;;3.05;;
70148;SDS011;57514;52.164;5.282;2023-12-14T05:55:31;9.90;;;3.67;;
70148;SDS011;57514;52.164;5.282;2023-12-14T05:57:58;10.70;;;3.67;;
70148;SDS011;57514;52.164;5.282;2023-12-14T06:00:25;8.88;;;3.47;;
70148;SDS011;57514;52.164;5.282;2023-12-14T06:02:53;10.55;;;3.22;;
70148;SDS011;57514;52.164;5.282;2023-12-14T06:05:20;10.48;;;3.35;;
70148;SDS011;57514;52.164;5.282;2023-12-14T06:07:47;10.57;;;3.42;;
70148;SDS011;57514;52.164;5.282;2023-12-14T06:10:15;9.30;;;3.58;;
70148;SDS011;57514;52.164;5.282;2023-12-14T06:12:42;9.30;;;3.63;;
70148;SDS011;57514;52.164;5.282;2023-12-14T06:15:09;8.50;;;3.30;;
70148;SDS011;57514;52.164;5.282;2023-12-14T06:17:37;8.48;;;3.47;;
70148;SDS011;57514;52.164;5.282;2023-12-14T06:20:05;10.68;;;3.80;;
70148;SDS011;57514;52.164;5.282;2023-12-14T06:22:36;9.50;;;3.60;;
70148;SDS011;57514;52.164;5.282;2023-12-14T06:25:04;10.65;;;3.53;;
70148;SDS011;57514;52.164;5.282;2023-12-14T06:27:31;9.75;;;3.35;;
70148;SDS011;57514;52.164;5.282;2023-12-14T06:29:58;9.38;;;3.33;;
70148;SDS011;57514;52.164;5.282;2023-12-14T06:32:26;10.48;;;3.58;;
70148;SDS011;57514;52.164;5.282;2023-12-14T06:34:53;9.45;;;4.00;;
70148;SDS011;57514;52.164;5.282;2023-12-14T06:37:20;9.52;;;4.00;;
70148;SDS011;57514;52.164;5.282;2023-12-14T06:39:47;8.68;;;3.35;;
70148;SDS011;57514;52.164;5.282;2023-12-14T06:42:15;9.45;;;3.67;;
70148;SDS011;57514;52.164;5.282;2023-12-14T06:44:42;10.40;;;3.95;;
70148;SDS011;57514;52.164;5.282;2023-12-14T06:47:09;10.30;;;3.67;;
70148;SDS011;57514;52.164;5.282;2023-12-14T06:49:37;10.25;;;3.60;;
70148;SDS011;57514;52.164;5.282;2023-12-14T06:52:05;10.48;;;3.25;;
70148;SDS011;57514;52.164;5.282;2023-12-14T06:54:32;9.45;;;3.45;;
70148;SDS011;57514;52.164;5.282;2023-12-14T06:56:59;9.82;;;3.70;;
70148;SDS011;57514;52.164;5.282;2023-12-14T06:59:26;10.60;;;3.75;;
70148;SDS011;57514;52.164;5.282;2023-12-14T07:01:54;9.93;;;3.80;;
70148;SDS011;57514;52.164;5.282;2023-12-14T07:04:22;9.02;;;3.70;;
70148;SDS011;57514;52.164;5.282;2023-12-14T07:06:52;10.85;;;3.95;;
70148;SDS011;57514;52.164;5.282;2023-12-14T07:09:20;10.43;;;4.13;;
70148;SDS011;57514;52.164;5.282;2023-12-14T07:11:47;10.45;;;3.88;;
70148;SDS011;57514;52.164;5.282;2023-12-14T07:14:14;9.52;;;3.70;;
70148;SDS011;57514;52.164;5.282;2023-12-14T07:16:42;9.75;;;3.45;;
70148;SDS011;57514;52.164;5.282;2023-12-14T07:19:09;9.60;;;3.90;;
70148;SDS011;57514;52.164;5.282;2023-12-14T07:21:37;10.20;;;4.03;;
70148;SDS011;57514;52.164;5.282;2023-12-14T07:24:05;9.13;;;3.88;;
70148;SDS011;57514;52.164;5.282;2023-12-14T07:26:32;8.90;;;3.63;;
70148;SDS011;57514;52.164;5.282;2023-12-14T07:28:59;9.50;;;3.65;;
70148;SDS011;57514;52.164;5.282;2023-12-14T07:31:27;9.68;;;3.40;;
70148;SDS011;57514;52.164;5.282;2023-12-14T07:33:56;11.10;;;3.92;;
70148;SDS011;57514;52.164;5.282;2023-12-14T07:36:23;11.27;;;4.07;;
70148;SDS011;57514;52.164;5.282;2023-12-14T07:38:51;9.82;;;3.78;;
70148;SDS011;57514;52.164;5.282;2023-12-14T07:41:20;10.07;;;4.03;;
70148;SDS011;57514;52.164;5.282;2023-12-14T07:43:53;9.30;;;3.80;;
70148;SDS011;57514;52.164;5.282;2023-12-14T07:46:20;12.70;;;4.20;;
70148;SDS011;57514;52.164;5.282;2023-12-14T07:48:47;10.05;;;4.55;;
70148;SDS011;57514;52.164;5.282;2023-12-14T07:51:15;10.52;;;4.30;;
70148;SDS011;57514;52.164;5.282;2023-12-14T07:53:43;11.10;;;4.50;;
70148;SDS011;57514;52.164;5.282;2023-12-14T07:56:13;10.02;;;4.10;;
70148;SDS011;57514;52.164;5.282;2023-12-14T07:58:41;10.68;;;4.43;;
70148;SDS011;57514;52.164;5.282;2023-12-14T08:01:08;10.73;;;4.10;;
70148;SDS011;57514;52.164;5.282;2023-12-14T08:03:36;10.32;;;4.20;;
70148;SDS011;57514;52.164;5.282;2023-12-14T08:06:03;12.15;;;4.63;;
70148;SDS011;57514;52.164;5.282;2023-12-14T08:08:31;10.00;;;4.38;;
70148;SDS011;57514;52.164;5.282;2023-12-14T08:10:58;10.07;;;4.13;;
70148;SDS011;57514;52.164;5.282;2023-12-14T08:13:25;10.77;;;4.20;;
70148;SDS011;57514;52.164;5.282;2023-12-14T08:15:52;10.00;;;4.00;;
70148;SDS011;57514;52.164;5.282;2023-12-14T08:18:20;10.82;;;4.22;;
70148;SDS011;57514;52.164;5.282;2023-12-14T08:20:47;10.15;;;3.83;;
70148;SDS011;57514;52.164;5.282;2023-12-14T08:23:14;9.77;;;3.78;;
70148;SDS011;57514;52.164;5.282;2023-12-14T08:25:43;11.77;;;4.10;;
70148;SDS011;57514;52.164;5.282;2023-12-14T08:28:10;10.30;;;4.03;;
70148;SDS011;57514;52.164;5.282;2023-12-14T08:30:37;9.68;;;3.83;;
70148;SDS011;57514;52.164;5.282;2023-12-14T08:33:05;10.63;;;4.63;;
70148;SDS011;57514;52.164;5.282;2023-12-14T08:35:33;8.93;;;4.05;;
70148;SDS011;57514;52.164;5.282;2023-12-14T08:38:00;9.98;;;4.28;;
70148;SDS011;57514;52.164;5.282;2023-12-14T08:40:29;11.30;;;4.40;;
70148;SDS011;57514;52.164;5.282;2023-12-14T08:42:57;11.27;;;4.20;;
70148;SDS011;57514;52.164;5.282;2023-12-14T08:45:24;9.45;;;4.07;;
70148;SDS011;57514;52.164;5.282;2023-12-14T08:47:54;10.55;;;4.20;;
70148;SDS011;57514;52.164;5.282;2023-12-14T08:50:21;9.18;;;3.75;;
70148;SDS011;57514;52.164;5.282;2023-12-14T08:52:48;8.90;;;3.70;;
70148;SDS011;57514;52.164;5.282;2023-12-14T08:55:18;10.70;;;3.53;;
70148;SDS011;57514;52.164;5.282;2023-12-14T08:57:46;8.70;;;3.85;;
70148;SDS011;57514;52.164;5.282;2023-12-14T09:00:15;10.07;;;3.90;;
70148;SDS011;57514;52.164;5.282;2023-12-14T09:02:45;9.13;;;3.88;;
70148;SDS011;57514;52.164;5.282;2023-12-14T09:05:13;9.18;;;3.80;;
70148;SDS011;57514;52.164;5.282;2023-12-14T09:07:42;8.60;;;4.07;;
70148;SDS011;57514;52.164;5.282;2023-12-14T09:10:10;11.68;;;4.00;;
70148;SDS011;57514;52.164;5.282;2023-12-14T09:12:37;10.50;;;3.90;;
70148;SDS011;57514;52.164;5.282;2023-12-14T09:15:05;11.48;;;5.22;;
70148;SDS011;57514;52.164;5.282;2023-12-14T09:17:32;9.00;;;3.85;;
70148;SDS011;57514;52.164;5.282;2023-12-14T09:20:03;9.82;;;4.00;;
70148;SDS011;57514;52.164;5.282;2023-12-14T09:22:31;10.05;;;3.92;;
70148;SDS011;57514;52.164;5.282;2023-12-14T09:24:59;10.15;;;3.80;;
70148;SDS011;57514;52.164;5.282;2023-12-14T09:27:26;9.45;;;3.83;;
70148;SDS011;57514;52.164;5.282;2023-12-14T09:29:54;9.55;;;3.40;;
70148;SDS011;57514;52.164;5.282;2023-12-14T09:32:21;10.80;;;4.10;;
70148;SDS011;57514;52.164;5.282;2023-12-14T09:34:48;10.75;;;4.00;;
70148;SDS011;57514;52.164;5.282;2023-12-14T09:37:18;9.30;;;3.90;;
70148;SDS011;57514;52.164;5.282;2023-12-14T09:39:45;8.88;;;3.78;;
70148;SDS011;57514;52.164;5.282;2023-12-14T09:42:13;10.38;;;3.90;;
70148;SDS011;57514;52.164;5.282;2023-12-14T09:44:42;9.68;;;3.50;;
70148;SDS011;57514;52.164;5.282;2023-12-14T09:47:10;9.32;;;3.78;;
70148;SDS011;57514;52.164;5.282;2023-12-14T09:49:38;9.65;;;3.70;;
70148;SDS011;57514;52.164;5.282;2023-12-14T09:52:09;9.10;;;3.60;;
70148;SDS011;57514;52.164;5.282;2023-12-14T09:54:36;8.40;;;3.55;;
70148;SDS011;57514;52.164;5.282;2023-12-14T09:57:04;9.98;;;4.15;;
70148;SDS011;57514;52.164;5.282;2023-12-14T09:59:31;8.68;;;4.00;;
70148;SDS011;57514;52.164;5.282;2023-12-14T10:02:08;8.82;;;3.53;;
70148;SDS011;57514;52.164;5.282;2023-12-14T10:04:37;8.85;;;3.47;;
70148;SDS011;57514;52.164;5.282;2023-12-14T10:07:04;8.27;;;3.50;;
70148;SDS011;57514;52.164;5.282;2023-12-14T10:09:34;6.20;;;2.63;;
70148;SDS011;57514;52.164;5.282;2023-12-14T10:12:04;5.18;;;2.00;;
70148;SDS011;57514;52.164;5.282;2023-12-14T10:14:32;4.40;;;2.20;;
70148;SDS011;57514;52.164;5.282;2023-12-14T10:17:13;5.15;;;2.42;;
70148;SDS011;57514;52.164;5.282;2023-12-14T10:19:44;6.20;;;3.10;;
70148;SDS011;57514;52.164;5.282;2023-12-14T10:22:13;7.85;;;3.35;;
70148;SDS011;57514;52.164;5.282;2023-12-14T10:24:44;7.47;;;3.33;;
70148;SDS011;57514;52.164;5.282;2023-12-14T10:27:14;8.45;;;3.47;;
70148;SDS011;57514;52.164;5.282;2023-12-14T10:29:42;9.95;;;4.43;;
70148;SDS011;57514;52.164;5.282;2023-12-14T10:34:41;9.20;;;3.72;;
70148;SDS011;57514;52.164;5.282;2023-12-14T10:37:12;9.15;;;4.18;;
70148;SDS011;57514;52.164;5.282;2023-12-14T10:39:40;9.93;;;4.00;;
70148;SDS011;57514;52.164;5.282;2023-12-14T10:42:09;9.75;;;4.13;;
70148;SDS011;57514;52.164;5.282;2023-12-14T10:47:30;10.40;;;4.18;;
70148;SDS011;57514;52.164;5.282;2023-12-14T10:49:58;8.65;;;3.67;;
70148;SDS011;57514;52.164;5.282;2023-12-14T10:52:30;8.65;;;3.67;;
70148;SDS011;57514;52.164;5.282;2023-12-14T10:55:04;8.90;;;3.60;;
70148;SDS011;57514;52.164;5.282;2023-12-14T10:57:33;8.48;;;3.90;;
70148;SDS011;57514;52.164;5.282;2023-12-14T11:00:02;10.25;;;4.00;;
70148;SDS011;57514;52.164;5.282;2023-12-14T11:02:36;10.13;;;3.90;;
70148;SDS011;57514;52.164;5.282;2023-12-14T11:05:05;11.48;;;4.25;;
70148;SDS011;57514;52.164;5.282;2023-12-14T11:07:42;9.90;;;4.22;;
70148;SDS011;57514;52.164;5.282;2023-12-14T11:10:13;7.72;;;3.20;;
70148;SDS011;57514;52.164;5.282;2023-12-14T11:12:57;7.88;;;3.60;;
70148;SDS011;57514;52.164;5.282;2023-12-14T11:15:30;7.45;;;3.53;;
70148;SDS011;57514;52.164;5.282;2023-12-14T11:20:50;10.05;;;4.13;;
70148;SDS011;57514;52.164;5.282;2023-12-14T11:25:53;9.40;;;3.65;;
70148;SDS011;57514;52.164;5.282;2023-12-14T11:28:26;9.15;;;4.03;;
70148;SDS011;57514;52.164;5.282;2023-12-14T11:30:54;9.00;;;3.85;;
70148;SDS011;57514;52.164;5.282;2023-12-14T11:33:23;10.27;;;3.70;;
70148;SDS011;57514;52.164;5.282;2023-12-14T11:35:51;9.85;;;4.00;;
70148;SDS011;57514;52.164;5.282;2023-12-14T11:38:19;9.93;;;4.05;;
70148;SDS011;57514;52.164;5.282;2023-12-14T11:40:48;9.48;;;3.97;;
70148;SDS011;57514;52.164;5.282;2023-12-14T11:43:16;9.15;;;3.55;;
70148;SDS011;57514;52.164;5.282;2023-12-14T11:45:47;8.52;;;3.50;;
70148;SDS011;57514;52.164;5.282;2023-12-14T11:48:15;7.95;;;3.70;;
70148;SDS011;57514;52.164;5.282;2023-12-14T11:50:43;6.65;;;3.10;;
70148;SDS011;57514;52.164;5.282;2023-12-14T11:53:13;7.60;;;3.15;;
70148;SDS011;57514;52.164;5.282;2023-12-14T11:55:42;10.68;;;3.88;;
70148;SDS011;57514;52.164;5.282;2023-12-14T11:58:11;8.00;;;3.35;;
70148;SDS011;57514;52.164;5.282;2023-12-14T12:00:40;8.55;;;3.67;;
70148;SDS011;57514;52.164;5.282;2023-12-14T12:03:12;7.47;;;3.28;;
70148;SDS011;57514;52.164;5.282;2023-12-14T12:05:42;7.85;;;3.42;;
70148;SDS011;57514;52.164;5.282;2023-12-14T12:08:10;9.55;;;3.33;;
70148;SDS011;57514;52.164;5.282;2023-12-14T12:10:38;10.85;;;4.20;;
70148;SDS011;57514;52.164;5.282;2023-12-14T12:13:07;8.38;;;3.50;;
70148;SDS011;57514;52.164;5.282;2023-12-14T12:15:35;8.18;;;3.40;;
70148;SDS011;57514;52.164;5.282;2023-12-14T12:18:04;9.30;;;3.70;;
70148;SDS011;57514;52.164;5.282;2023-12-14T12:20:32;7.80;;;3.20;;
70148;SDS011;57514;52.164;5.282;2023-12-14T12:22:59;8.77;;;3.53;;
70148;SDS011;57514;52.164;5.282;2023-12-14T12:25:27;7.72;;;3.10;;
70148;SDS011;57514;52.164;5.282;2023-12-14T12:27:54;9.70;;;4.05;;
70148;SDS011;57514;52.164;5.282;2023-12-14T12:30:22;8.27;;;3.40;;
70148;SDS011;57514;52.164;5.282;2023-12-14T12:32:50;8.48;;;3.42;;
70148;SDS011;57514;52.164;5.282;2023-12-14T12:35:21;10.68;;;3.92;;
70148;SDS011;57514;52.164;5.282;2023-12-14T12:40:20;9.00;;;3.58;;
70148;SDS011;57514;52.164;5.282;2023-12-14T12:42:48;9.93;;;3.72;;
70148;SDS011;57514;52.164;5.282;2023-12-14T12:45:16;8.82;;;3.80;;
70148;SDS011;57514;52.164;5.282;2023-12-14T12:47:45;9.18;;;3.53;;
70148;SDS011;57514;52.164;5.282;2023-12-14T12:50:12;8.80;;;3.63;;
70148;SDS011;57514;52.164;5.282;2023-12-14T12:52:40;9.93;;;3.75;;
70148;SDS011;57514;52.164;5.282;2023-12-14T12:55:09;10.43;;;4.03;;
70148;SDS011;57514;52.164;5.282;2023-12-14T12:57:38;8.43;;;3.50;;
70148;SDS011;57514;52.164;5.282;2023-12-14T13:00:08;7.97;;;3.30;;
70148;SDS011;57514;52.164;5.282;2023-12-14T13:02:38;10.05;;;3.60;;
70148;SDS011;57514;52.164;5.282;2023-12-14T13:05:06;10.98;;;3.47;;
70148;SDS011;57514;52.164;5.282;2023-12-14T13:07:36;9.63;;;3.90;;
70148;SDS011;57514;52.164;5.282;2023-12-14T13:10:05;12.05;;;4.00;;
70148;SDS011;57514;52.164;5.282;2023-12-14T13:12:50;10.27;;;4.13;;
70148;SDS011;57514;52.164;5.282;2023-12-14T13:15:18;8.88;;;3.35;;
70148;SDS011;57514;52.164;5.282;2023-12-14T13:17:45;8.93;;;3.33;;
70148;SDS011;57514;52.164;5.282;2023-12-14T13:20:13;9.63;;;3.70;;
70148;SDS011;57514;52.164;5.282;2023-12-14T13:22:40;9.38;;;3.47;;
70148;SDS011;57514;52.164;5.282;2023-12-14T13:25:08;10.63;;;3.38;;
70148;SDS011;57514;52.164;5.282;2023-12-14T13:27:35;8.57;;;3.70;;
70148;SDS011;57514;52.164;5.282;2023-12-14T13:30:06;9.63;;;3.58;;
70148;SDS011;57514;52.164;5.282;2023-12-14T13:32:38;9.18;;;3.13;;
70148;SDS011;57514;52.164;5.282;2023-12-14T13:35:05;8.98;;;3.40;;
70148;SDS011;57514;52.164;5.282;2023-12-14T13:37:35;9.70;;;3.13;;
70148;SDS011;57514;52.164;5.282;2023-12-14T13:40:03;10.88;;;3.42;;
70148;SDS011;57514;52.164;5.282;2023-12-14T13:42:32;8.27;;;3.22;;
70148;SDS011;57514;52.164;5.282;2023-12-14T13:45:00;9.93;;;3.45;;
70148;SDS011;57514;52.164;5.282;2023-12-14T13:47:28;9.73;;;3.45;;
70148;SDS011;57514;52.164;5.282;2023-12-14T13:49:55;8.98;;;3.33;;
70148;SDS011;57514;52.164;5.282;2023-12-14T13:52:23;8.23;;;3.28;;
70148;SDS011;57514;52.164;5.282;2023-12-14T13:54:54;9.90;;;3.67;;
70148;SDS011;57514;52.164;5.282;2023-12-14T13:57:22;9.68;;;3.67;;
70148;SDS011;57514;52.164;5.282;2023-12-14T13:59:49;9.57;;;3.20;;
70148;SDS011;57514;52.164;5.282;2023-12-14T14:02:17;10.35;;;3.90;;
70148;SDS011;57514;52.164;5.282;2023-12-14T14:04:44;9.60;;;3.70;;
70148;SDS011;57514;52.164;5.282;2023-12-14T14:07:14;11.55;;;4.18;;
70148;SDS011;57514;52.164;5.282;2023-12-14T14:09:42;9.45;;;3.78;;
70148;SDS011;57514;52.164;5.282;2023-12-14T14:12:09;10.50;;;4.38;;
70148;SDS011;57514;52.164;5.282;2023-12-14T14:14:36;10.30;;;4.15;;
70148;SDS011;57514;52.164;5.282;2023-12-14T14:17:04;10.27;;;3.95;;
70148;SDS011;57514;52.164;5.282;2023-12-14T14:19:42;13.60;;;4.60;;
70148;SDS011;57514;52.164;5.282;2023-12-14T14:22:15;10.50;;;4.18;;
70148;SDS011;57514;52.164;5.282;2023-12-14T14:24:43;10.63;;;4.47;;
70148;SDS011;57514;52.164;5.282;2023-12-14T14:27:34;12.88;;;5.40;;
70148;SDS011;57514;52.164;5.282;2023-12-14T14:30:02;12.02;;;5.07;;
70148;SDS011;57514;52.164;5.282;2023-12-14T14:32:30;13.68;;;5.85;;
70148;SDS011;57514;52.164;5.282;2023-12-14T14:34:59;12.13;;;5.13;;
70148;SDS011;57514;52.164;5.282;2023-12-14T14:37:27;11.60;;;5.05;;
70148;SDS011;57514;52.164;5.282;2023-12-14T14:39:55;13.13;;;5.72;;
70148;SDS011;57514;52.164;5.282;2023-12-14T14:42:23;13.27;;;5.13;;
70148;SDS011;57514;52.164;5.282;2023-12-14T14:44:51;12.38;;;5.57;;
70148;SDS011;57514;52.164;5.282;2023-12-14T14:47:18;12.40;;;5.38;;
70148;SDS011;57514;52.164;5.282;2023-12-14T14:49:46;12.85;;;5.85;;
70148;SDS011;57514;52.164;5.282;2023-12-14T14:52:16;12.00;;;4.60;;
70148;SDS011;57514;52.164;5.282;2023-12-14T14:54:44;12.93;;;5.00;;
70148;SDS011;57514;52.164;5.282;2023-12-14T14:57:12;17.20;;;7.20;;
70148;SDS011;57514;52.164;5.282;2023-12-14T14:59:39;14.15;;;5.40;;
70148;SDS011;57514;52.164;5.282;2023-12-14T15:02:06;14.65;;;5.88;;